sensor_id;sensor_type;location;lat;lon;timestamp;P1;durP1;ratioP1;P2;durP2;ratioP2
3217;SDS011;1621;49.702;8.618;2022-07-18T00:01:07;3.10;;;1.60;;
3217;SDS011;1621;49.702;8.618;2022-07-18T00:03:33;4.13;;;1.57;;
3217;SDS011;1621;49.702;8.618;2022-07-18T00:05:59;4.50;;;1.60;;
3217;SDS011;1621;49.702;8.618;2022-07-18T00:08:25;2.90;;;1.40;;
3217;SDS011;1621;49.702;8.618;2022-07-18T00:10:52;2.67;;;1.53;;
3217;SDS011;1621;49.702;8.618;2022-07-18T00:13:19;2.90;;;1.50;;
3217;SDS011;1621;49.702;8.618;2022-07-18T00:15:47;8.60;;;1.80;;
3217;SDS011;1621;49.702;8.618;2022-07-18T00:18:13;6.10;;;1.70;;
3217;SDS011;1621;49.702;8.618;2022-07-18T00:20:39;4.20;;;1.77;;
3217;SDS011;1621;49.702;8.618;2022-07-18T00:23:05;3.40;;;1.50;;
3217;SDS011;1621;49.702;8.618;2022-07-18T00:25:32;2.27;;;1.37;;
3217;SDS011;1621;49.702;8.618;2022-07-18T00:27:58;2.10;;;1.30;;
3217;SDS011;1621;49.702;8.618;2022-07-18T00:30:25;4.47;;;1.83;;
3217;SDS011;1621;49.702;8.618;2022-07-18T00:32:52;2.70;;;1.40;;
3217;SDS011;1621;49.702;8.618;2022-07-18T00:35:18;3.33;;;1.50;;
3217;SDS011;1621;49.702;8.618;2022-07-18T00:37:44;2.20;;;1.30;;
3217;SDS011;1621;49.702;8.618;2022-07-18T00:40:11;2.17;;;1.43;;
3217;SDS011;1621;49.702;8.618;2022-07-18T00:42:37;3.00;;;1.40;;
3217;SDS011;1621;49.702;8.618;2022-07-18T00:45:04;2.40;;;1.33;;
3217;SDS011;1621;49.702;8.618;2022-07-18T00:47:31;4.23;;;2.30;;
3217;SDS011;1621;49.702;8.618;2022-07-18T00:49:58;4.80;;;1.60;;
3217;SDS011;1621;49.702;8.618;2022-07-18T00:52:24;4.07;;;1.50;;
3217;SDS011;1621;49.702;8.618;2022-07-18T00:54:50;4.47;;;1.30;;
3217;SDS011;1621;49.702;8.618;2022-07-18T00:57:16;3.60;;;1.40;;
3217;SDS011;1621;49.702;8.618;2022-07-18T00:59:43;3.90;;;1.50;;
3217;SDS011;1621;49.702;8.618;2022-07-18T01:02:26;2.37;;;1.53;;
3217;SDS011;1621;49.702;8.618;2022-07-18T01:04:54;2.33;;;1.37;;
3217;SDS011;1621;49.702;8.618;2022-07-18T01:07:20;2.57;;;1.70;;
3217;SDS011;1621;49.702;8.618;2022-07-18T01:09:46;3.43;;;1.63;;
3217;SDS011;1621;49.702;8.618;2022-07-18T01:12:13;3.53;;;1.80;;
3217;SDS011;1621;49.702;8.618;2022-07-18T01:14:39;4.20;;;1.80;;
3217;SDS011;1621;49.702;8.618;2022-07-18T01:17:13;2.90;;;1.90;;
3217;SDS011;1621;49.702;8.618;2022-07-18T01:19:39;2.63;;;1.70;;
3217;SDS011;1621;49.702;8.618;2022-07-18T01:22:07;3.27;;;1.87;;
3217;SDS011;1621;49.702;8.618;2022-07-18T01:24:33;3.10;;;1.97;;
3217;SDS011;1621;49.702;8.618;2022-07-18T01:27:00;4.77;;;2.03;;
3217;SDS011;1621;49.702;8.618;2022-07-18T01:29:26;3.03;;;1.60;;
3217;SDS011;1621;49.702;8.618;2022-07-18T01:31:52;5.23;;;1.73;;
3217;SDS011;1621;49.702;8.618;2022-07-18T01:34:20;7.33;;;2.10;;
3217;SDS011;1621;49.702;8.618;2022-07-18T01:36:46;3.37;;;1.90;;
3217;SDS011;1621;49.702;8.618;2022-07-18T01:39:14;8.30;;;2.00;;
3217;SDS011;1621;49.702;8.618;2022-07-18T01:41:40;3.73;;;1.67;;
3217;SDS011;1621;49.702;8.618;2022-07-18T01:44:06;4.40;;;1.90;;
3217;SDS011;1621;49.702;8.618;2022-07-18T01:46:33;5.10;;;2.37;;
3217;SDS011;1621;49.702;8.618;2022-07-18T01:48:59;2.80;;;1.77;;
3217;SDS011;1621;49.702;8.618;2022-07-18T01:51:25;3.53;;;1.80;;
3217;SDS011;1621;49.702;8.618;2022-07-18T01:53:56;4.47;;;2.13;;
3217;SDS011;1621;49.702;8.618;2022-07-18T01:56:24;4.87;;;1.80;;
3217;SDS011;1621;49.702;8.618;2022-07-18T01:58:50;3.80;;;1.90;;
3217;SDS011;1621;49.702;8.618;2022-07-18T02:01:17;4.03;;;1.90;;
3217;SDS011;1621;49.702;8.618;2022-07-18T02:03:43;4.27;;;1.87;;
3217;SDS011;1621;49.702;8.618;2022-07-18T02:06:09;5.87;;;2.20;;
3217;SDS011;1621;49.702;8.618;2022-07-18T02:08:35;4.33;;;2.10;;
3217;SDS011;1621;49.702;8.618;2022-07-18T02:11:02;3.30;;;1.70;;
3217;SDS011;1621;49.702;8.618;2022-07-18T02:13:29;3.80;;;2.00;;
3217;SDS011;1621;49.702;8.618;2022-07-18T02:15:55;4.00;;;1.90;;
3217;SDS011;1621;49.702;8.618;2022-07-18T02:18:22;4.40;;;2.40;;
3217;SDS011;1621;49.702;8.618;2022-07-18T02:20:48;3.30;;;1.73;;
3217;SDS011;1621;49.702;8.618;2022-07-18T02:23:14;3.10;;;2.10;;
3217;SDS011;1621;49.702;8.618;2022-07-18T02:25:40;4.90;;;1.90;;
3217;SDS011;1621;49.702;8.618;2022-07-18T02:28:07;7.20;;;2.07;;
3217;SDS011;1621;49.702;8.618;2022-07-18T02:30:34;2.90;;;1.90;;
3217;SDS011;1621;49.702;8.618;2022-07-18T02:33:01;5.10;;;2.23;;
3217;SDS011;1621;49.702;8.618;2022-07-18T02:35:27;5.03;;;1.90;;
3217;SDS011;1621;49.702;8.618;2022-07-18T02:37:53;4.67;;;2.30;;
3217;SDS011;1621;49.702;8.618;2022-07-18T02:40:20;5.50;;;2.13;;
3217;SDS011;1621;49.702;8.618;2022-07-18T02:42:46;7.30;;;2.57;;
3217;SDS011;1621;49.702;8.618;2022-07-18T02:45:12;3.97;;;2.47;;
3217;SDS011;1621;49.702;8.618;2022-07-18T02:47:40;5.80;;;2.33;;
3217;SDS011;1621;49.702;8.618;2022-07-18T02:50:07;3.57;;;2.10;;
3217;SDS011;1621;49.702;8.618;2022-07-18T02:52:33;5.23;;;2.50;;
3217;SDS011;1621;49.702;8.618;2022-07-18T02:54:59;3.83;;;2.07;;
3217;SDS011;1621;49.702;8.618;2022-07-18T02:57:26;6.07;;;1.97;;
3217;SDS011;1621;49.702;8.618;2022-07-18T02:59:53;6.73;;;2.33;;
3217;SDS011;1621;49.702;8.618;2022-07-18T03:02:19;6.03;;;2.30;;
3217;SDS011;1621;49.702;8.618;2022-07-18T03:04:47;6.20;;;2.70;;
3217;SDS011;1621;49.702;8.618;2022-07-18T03:07:13;4.90;;;2.20;;
3217;SDS011;1621;49.702;8.618;2022-07-18T03:09:39;4.33;;;2.07;;
3217;SDS011;1621;49.702;8.618;2022-07-18T03:12:06;4.30;;;2.40;;
3217;SDS011;1621;49.702;8.618;2022-07-18T03:14:32;4.60;;;2.30;;
3217;SDS011;1621;49.702;8.618;2022-07-18T03:16:58;3.63;;;2.00;;
3217;SDS011;1621;49.702;8.618;2022-07-18T03:19:25;4.30;;;2.33;;
3217;SDS011;1621;49.702;8.618;2022-07-18T03:21:53;5.03;;;2.30;;
3217;SDS011;1621;49.702;8.618;2022-07-18T03:24:19;9.00;;;2.40;;
3217;SDS011;1621;49.702;8.618;2022-07-18T03:26:45;4.10;;;2.30;;
3217;SDS011;1621;49.702;8.618;2022-07-18T03:29:11;3.80;;;1.80;;
3217;SDS011;1621;49.702;8.618;2022-07-18T03:31:38;8.07;;;2.40;;
3217;SDS011;1621;49.702;8.618;2022-07-18T03:34:05;4.47;;;2.10;;
3217;SDS011;1621;49.702;8.618;2022-07-18T03:36:31;3.57;;;1.87;;
3217;SDS011;1621;49.702;8.618;2022-07-18T03:38:59;5.67;;;2.27;;
3217;SDS011;1621;49.702;8.618;2022-07-18T03:41:25;5.00;;;2.17;;
3217;SDS011;1621;49.702;8.618;2022-07-18T03:43:51;2.83;;;2.10;;
3217;SDS011;1621;49.702;8.618;2022-07-18T03:46:17;6.87;;;2.53;;
3217;SDS011;1621;49.702;8.618;2022-07-18T03:48:44;3.70;;;1.83;;
3217;SDS011;1621;49.702;8.618;2022-07-18T03:51:10;6.73;;;2.40;;
3217;SDS011;1621;49.702;8.618;2022-07-18T03:53:36;3.90;;;2.40;;
3217;SDS011;1621;49.702;8.618;2022-07-18T03:56:04;6.40;;;2.43;;
3217;SDS011;1621;49.702;8.618;2022-07-18T03:58:30;5.10;;;2.10;;
3217;SDS011;1621;49.702;8.618;2022-07-18T04:00:57;4.23;;;2.23;;
3217;SDS011;1621;49.702;8.618;2022-07-18T04:03:23;3.90;;;2.33;;
3217;SDS011;1621;49.702;8.618;2022-07-18T04:05:50;3.83;;;1.93;;
3217;SDS011;1621;49.702;8.618;2022-07-18T04:08:16;4.00;;;2.13;;
3217;SDS011;1621;49.702;8.618;2022-07-18T04:10:42;4.63;;;2.10;;
3217;SDS011;1621;49.702;8.618;2022-07-18T04:13:10;3.13;;;1.97;;
3217;SDS011;1621;49.702;8.618;2022-07-18T04:15:37;3.90;;;2.27;;
3217;SDS011;1621;49.702;8.618;2022-07-18T04:18:03;4.83;;;2.07;;
3217;SDS011;1621;49.702;8.618;2022-07-18T04:20:30;5.80;;;2.37;;
3217;SDS011;1621;49.702;8.618;2022-07-18T04:22:57;4.40;;;1.80;;
3217;SDS011;1621;49.702;8.618;2022-07-18T04:25:25;3.63;;;1.73;;
3217;SDS011;1621;49.702;8.618;2022-07-18T04:27:51;3.10;;;2.00;;
3217;SDS011;1621;49.702;8.618;2022-07-18T04:30:20;3.27;;;2.20;;
3217;SDS011;1621;49.702;8.618;2022-07-18T04:32:46;3.70;;;1.93;;
3217;SDS011;1621;49.702;8.618;2022-07-18T04:35:13;4.57;;;2.73;;
3217;SDS011;1621;49.702;8.618;2022-07-18T04:37:39;4.80;;;2.03;;
3217;SDS011;1621;49.702;8.618;2022-07-18T04:40:06;4.10;;;1.90;;
3217;SDS011;1621;49.702;8.618;2022-07-18T04:42:33;3.73;;;2.23;;
3217;SDS011;1621;49.702;8.618;2022-07-18T04:44:59;4.97;;;2.00;;
3217;SDS011;1621;49.702;8.618;2022-07-18T04:47:27;4.30;;;1.83;;
3217;SDS011;1621;49.702;8.618;2022-07-18T04:49:54;4.60;;;2.20;;
3217;SDS011;1621;49.702;8.618;2022-07-18T04:52:20;6.77;;;2.73;;
3217;SDS011;1621;49.702;8.618;2022-07-18T04:54:46;5.37;;;2.80;;
3217;SDS011;1621;49.702;8.618;2022-07-18T04:57:13;3.67;;;2.13;;
3217;SDS011;1621;49.702;8.618;2022-07-18T04:59:39;5.00;;;2.13;;
3217;SDS011;1621;49.702;8.618;2022-07-18T05:02:06;6.37;;;2.20;;
3217;SDS011;1621;49.702;8.618;2022-07-18T05:04:33;4.97;;;2.40;;
3217;SDS011;1621;49.702;8.618;2022-07-18T05:06:59;5.20;;;2.30;;
3217;SDS011;1621;49.702;8.618;2022-07-18T05:09:26;5.70;;;3.17;;
3217;SDS011;1621;49.702;8.618;2022-07-18T05:11:53;8.93;;;3.73;;
3217;SDS011;1621;49.702;8.618;2022-07-18T05:14:19;12.93;;;4.00;;
3217;SDS011;1621;49.702;8.618;2022-07-18T05:16:46;7.97;;;3.80;;
3217;SDS011;1621;49.702;8.618;2022-07-18T05:19:12;8.20;;;3.80;;
3217;SDS011;1621;49.702;8.618;2022-07-18T05:21:41;8.30;;;4.13;;
3217;SDS011;1621;49.702;8.618;2022-07-18T05:24:07;9.57;;;4.00;;
3217;SDS011;1621;49.702;8.618;2022-07-18T05:26:34;5.70;;;3.43;;
3217;SDS011;1621;49.702;8.618;2022-07-18T05:29:00;5.40;;;3.73;;
3217;SDS011;1621;49.702;8.618;2022-07-18T05:31:26;7.33;;;3.53;;
3217;SDS011;1621;49.702;8.618;2022-07-18T05:33:52;20.63;;;4.10;;
3217;SDS011;1621;49.702;8.618;2022-07-18T05:36:19;15.13;;;3.57;;
3217;SDS011;1621;49.702;8.618;2022-07-18T05:38:46;10.33;;;3.40;;
3217;SDS011;1621;49.702;8.618;2022-07-18T05:41:13;7.47;;;3.10;;
3217;SDS011;1621;49.702;8.618;2022-07-18T05:43:39;5.73;;;3.00;;
3217;SDS011;1621;49.702;8.618;2022-07-18T05:46:05;7.83;;;3.20;;
3217;SDS011;1621;49.702;8.618;2022-07-18T05:48:32;10.93;;;2.90;;
3217;SDS011;1621;49.702;8.618;2022-07-18T05:50:58;7.97;;;2.83;;
3217;SDS011;1621;49.702;8.618;2022-07-18T05:53:25;10.30;;;3.37;;
3217;SDS011;1621;49.702;8.618;2022-07-18T05:55:52;8.23;;;2.67;;
3217;SDS011;1621;49.702;8.618;2022-07-18T05:58:18;8.63;;;3.70;;
3217;SDS011;1621;49.702;8.618;2022-07-18T06:00:45;9.40;;;2.93;;
3217;SDS011;1621;49.702;8.618;2022-07-18T06:03:11;9.23;;;2.70;;
3217;SDS011;1621;49.702;8.618;2022-07-18T06:05:37;4.00;;;2.30;;
3217;SDS011;1621;49.702;8.618;2022-07-18T06:08:04;6.07;;;2.90;;
3217;SDS011;1621;49.702;8.618;2022-07-18T06:10:30;7.63;;;3.17;;
3217;SDS011;1621;49.702;8.618;2022-07-18T06:12:58;10.03;;;2.63;;
3217;SDS011;1621;49.702;8.618;2022-07-18T06:15:24;8.90;;;2.60;;
3217;SDS011;1621;49.702;8.618;2022-07-18T06:17:51;7.57;;;3.17;;
3217;SDS011;1621;49.702;8.618;2022-07-18T06:20:17;4.93;;;2.33;;
3217;SDS011;1621;49.702;8.618;2022-07-18T06:22:44;10.00;;;3.10;;
3217;SDS011;1621;49.702;8.618;2022-07-18T06:25:10;12.60;;;3.63;;
3217;SDS011;1621;49.702;8.618;2022-07-18T06:27:37;7.27;;;2.77;;
3217;SDS011;1621;49.702;8.618;2022-07-18T06:30:05;4.90;;;3.53;;
3217;SDS011;1621;49.702;8.618;2022-07-18T06:32:32;9.17;;;4.23;;
3217;SDS011;1621;49.702;8.618;2022-07-18T06:34:58;9.23;;;3.83;;
3217;SDS011;1621;49.702;8.618;2022-07-18T06:37:24;8.23;;;3.87;;
3217;SDS011;1621;49.702;8.618;2022-07-18T06:39:51;6.97;;;3.00;;
3217;SDS011;1621;49.702;8.618;2022-07-18T06:42:17;6.40;;;3.40;;
3217;SDS011;1621;49.702;8.618;2022-07-18T06:44:43;5.60;;;3.53;;
3217;SDS011;1621;49.702;8.618;2022-07-18T06:47:11;6.30;;;3.00;;
3217;SDS011;1621;49.702;8.618;2022-07-18T06:49:37;5.67;;;2.63;;
3217;SDS011;1621;49.702;8.618;2022-07-18T06:52:03;5.60;;;2.40;;
3217;SDS011;1621;49.702;8.618;2022-07-18T06:54:30;5.37;;;2.20;;
3217;SDS011;1621;49.702;8.618;2022-07-18T06:56:58;5.17;;;2.27;;
3217;SDS011;1621;49.702;8.618;2022-07-18T06:59:25;3.33;;;2.27;;
3217;SDS011;1621;49.702;8.618;2022-07-18T07:01:51;7.00;;;2.40;;
3217;SDS011;1621;49.702;8.618;2022-07-18T07:04:18;4.90;;;2.67;;
3217;SDS011;1621;49.702;8.618;2022-07-18T07:06:45;4.30;;;2.60;;
3217;SDS011;1621;49.702;8.618;2022-07-18T07:09:11;3.40;;;1.83;;
3217;SDS011;1621;49.702;8.618;2022-07-18T07:11:37;3.50;;;1.97;;
3217;SDS011;1621;49.702;8.618;2022-07-18T07:14:03;5.60;;;2.07;;
3217;SDS011;1621;49.702;8.618;2022-07-18T07:16:30;3.27;;;1.70;;
3217;SDS011;1621;49.702;8.618;2022-07-18T07:18:56;6.27;;;2.20;;
3217;SDS011;1621;49.702;8.618;2022-07-18T07:21:23;3.57;;;2.00;;
3217;SDS011;1621;49.702;8.618;2022-07-18T07:23:50;5.43;;;2.63;;
3217;SDS011;1621;49.702;8.618;2022-07-18T07:26:16;11.73;;;2.97;;
3217;SDS011;1621;49.702;8.618;2022-07-18T07:28:42;6.03;;;2.00;;
3217;SDS011;1621;49.702;8.618;2022-07-18T07:31:08;4.70;;;1.97;;
3217;SDS011;1621;49.702;8.618;2022-07-18T07:33:35;4.10;;;2.03;;
3217;SDS011;1621;49.702;8.618;2022-07-18T07:36:01;5.63;;;2.43;;
3217;SDS011;1621;49.702;8.618;2022-07-18T07:38:31;6.23;;;3.00;;
3217;SDS011;1621;49.702;8.618;2022-07-18T07:40:57;5.40;;;2.00;;
3217;SDS011;1621;49.702;8.618;2022-07-18T07:43:26;3.90;;;2.00;;
3217;SDS011;1621;49.702;8.618;2022-07-18T07:45:52;7.63;;;2.17;;
3217;SDS011;1621;49.702;8.618;2022-07-18T07:48:21;5.00;;;2.27;;
3217;SDS011;1621;49.702;8.618;2022-07-18T07:50:47;3.97;;;1.97;;
3217;SDS011;1621;49.702;8.618;2022-07-18T07:53:13;6.27;;;2.43;;
3217;SDS011;1621;49.702;8.618;2022-07-18T07:55:41;6.17;;;1.80;;
3217;SDS011;1621;49.702;8.618;2022-07-18T07:58:07;4.10;;;2.10;;
3217;SDS011;1621;49.702;8.618;2022-07-18T08:00:34;3.60;;;1.90;;
3217;SDS011;1621;49.702;8.618;2022-07-18T08:03:01;17.60;;;3.57;;
3217;SDS011;1621;49.702;8.618;2022-07-18T08:05:28;32.60;;;6.90;;
3217;SDS011;1621;49.702;8.618;2022-07-18T08:07:55;35.97;;;6.80;;
3217;SDS011;1621;49.702;8.618;2022-07-18T08:10:21;28.90;;;6.33;;
3217;SDS011;1621;49.702;8.618;2022-07-18T08:12:49;31.73;;;6.67;;
3217;SDS011;1621;49.702;8.618;2022-07-18T08:15:15;21.73;;;5.90;;
3217;SDS011;1621;49.702;8.618;2022-07-18T08:17:42;27.17;;;4.83;;
3217;SDS011;1621;49.702;8.618;2022-07-18T08:20:09;17.67;;;3.70;;
3217;SDS011;1621;49.702;8.618;2022-07-18T08:22:36;18.20;;;4.43;;
3217;SDS011;1621;49.702;8.618;2022-07-18T08:25:02;11.20;;;3.00;;
3217;SDS011;1621;49.702;8.618;2022-07-18T08:27:29;4.90;;;2.37;;
3217;SDS011;1621;49.702;8.618;2022-07-18T08:29:56;7.40;;;2.67;;
3217;SDS011;1621;49.702;8.618;2022-07-18T08:32:23;5.23;;;2.20;;
3217;SDS011;1621;49.702;8.618;2022-07-18T08:34:49;14.33;;;2.47;;
3217;SDS011;1621;49.702;8.618;2022-07-18T08:37:17;4.10;;;1.90;;
3217;SDS011;1621;49.702;8.618;2022-07-18T08:39:44;3.37;;;1.93;;
3217;SDS011;1621;49.702;8.618;2022-07-18T08:42:10;6.40;;;2.30;;
3217;SDS011;1621;49.702;8.618;2022-07-18T08:44:36;4.43;;;1.90;;
3217;SDS011;1621;49.702;8.618;2022-07-18T08:47:06;8.93;;;2.40;;
3217;SDS011;1621;49.702;8.618;2022-07-18T08:49:34;4.57;;;1.97;;
3217;SDS011;1621;49.702;8.618;2022-07-18T08:52:01;2.90;;;1.60;;
3217;SDS011;1621;49.702;8.618;2022-07-18T08:54:27;3.90;;;2.10;;
3217;SDS011;1621;49.702;8.618;2022-07-18T08:56:53;3.23;;;1.90;;
3217;SDS011;1621;49.702;8.618;2022-07-18T08:59:20;7.17;;;2.50;;
3217;SDS011;1621;49.702;8.618;2022-07-18T09:01:46;3.10;;;1.77;;
3217;SDS011;1621;49.702;8.618;2022-07-18T09:04:16;3.40;;;1.87;;
3217;SDS011;1621;49.702;8.618;2022-07-18T09:06:56;4.67;;;1.97;;
3217;SDS011;1621;49.702;8.618;2022-07-18T09:09:24;2.83;;;1.53;;
3217;SDS011;1621;49.702;8.618;2022-07-18T09:11:50;2.53;;;1.67;;
3217;SDS011;1621;49.702;8.618;2022-07-18T09:14:27;4.77;;;1.63;;
3217;SDS011;1621;49.702;8.618;2022-07-18T09:16:58;4.97;;;1.90;;
3217;SDS011;1621;49.702;8.618;2022-07-18T09:19:26;3.30;;;1.47;;
3217;SDS011;1621;49.702;8.618;2022-07-18T09:21:52;2.77;;;1.40;;
3217;SDS011;1621;49.702;8.618;2022-07-18T09:24:19;4.63;;;1.70;;
3217;SDS011;1621;49.702;8.618;2022-07-18T09:26:45;7.70;;;1.60;;
3217;SDS011;1621;49.702;8.618;2022-07-18T09:29:14;3.53;;;1.60;;
3217;SDS011;1621;49.702;8.618;2022-07-18T09:31:42;4.00;;;1.47;;
3217;SDS011;1621;49.702;8.618;2022-07-18T09:34:13;4.10;;;1.70;;
3217;SDS011;1621;49.702;8.618;2022-07-18T09:36:54;4.40;;;1.67;;
3217;SDS011;1621;49.702;8.618;2022-07-18T09:39:21;3.90;;;1.60;;
3217;SDS011;1621;49.702;8.618;2022-07-18T09:41:47;2.00;;;1.30;;
3217;SDS011;1621;49.702;8.618;2022-07-18T09:44:14;6.13;;;1.40;;
3217;SDS011;1621;49.702;8.618;2022-07-18T09:46:46;2.20;;;1.27;;
3217;SDS011;1621;49.702;8.618;2022-07-18T09:49:28;3.90;;;1.80;;
3217;SDS011;1621;49.702;8.618;2022-07-18T09:52:02;6.10;;;1.60;;
3217;SDS011;1621;49.702;8.618;2022-07-18T09:54:34;3.97;;;1.60;;
3217;SDS011;1621;49.702;8.618;2022-07-18T09:57:00;3.00;;;1.37;;
3217;SDS011;1621;49.702;8.618;2022-07-18T09:59:27;3.57;;;1.40;;
3217;SDS011;1621;49.702;8.618;2022-07-18T10:01:53;2.33;;;1.20;;
3217;SDS011;1621;49.702;8.618;2022-07-18T10:04:19;3.40;;;1.60;;
3217;SDS011;1621;49.702;8.618;2022-07-18T10:06:46;2.57;;;1.50;;
3217;SDS011;1621;49.702;8.618;2022-07-18T10:09:13;3.90;;;1.70;;
3217;SDS011;1621;49.702;8.618;2022-07-18T10:11:40;2.90;;;1.70;;
3217;SDS011;1621;49.702;8.618;2022-07-18T10:14:06;2.53;;;1.43;;
3217;SDS011;1621;49.702;8.618;2022-07-18T10:16:33;2.90;;;1.50;;
3217;SDS011;1621;49.702;8.618;2022-07-18T10:18:59;5.27;;;1.53;;
3217;SDS011;1621;49.702;8.618;2022-07-18T10:21:25;4.70;;;1.67;;
3217;SDS011;1621;49.702;8.618;2022-07-18T10:23:54;2.33;;;1.20;;
3217;SDS011;1621;49.702;8.618;2022-07-18T10:26:23;6.50;;;1.70;;
3217;SDS011;1621;49.702;8.618;2022-07-18T10:31:36;2.63;;;1.73;;
3217;SDS011;1621;49.702;8.618;2022-07-18T10:34:09;4.73;;;2.17;;
3217;SDS011;1621;49.702;8.618;2022-07-18T10:36:36;2.60;;;1.57;;
3217;SDS011;1621;49.702;8.618;2022-07-18T10:39:03;3.70;;;1.33;;
3217;SDS011;1621;49.702;8.618;2022-07-18T10:41:32;2.77;;;1.70;;
3217;SDS011;1621;49.702;8.618;2022-07-18T10:43:58;4.70;;;1.53;;
3217;SDS011;1621;49.702;8.618;2022-07-18T10:46:26;3.13;;;1.70;;
3217;SDS011;1621;49.702;8.618;2022-07-18T10:49:11;3.40;;;1.40;;
3217;SDS011;1621;49.702;8.618;2022-07-18T10:51:37;2.30;;;1.40;;
3217;SDS011;1621;49.702;8.618;2022-07-18T10:54:04;3.37;;;1.47;;
3217;SDS011;1621;49.702;8.618;2022-07-18T10:59:17;6.93;;;1.40;;
3217;SDS011;1621;49.702;8.618;2022-07-18T11:01:48;2.77;;;1.50;;
3217;SDS011;1621;49.702;8.618;2022-07-18T11:04:25;2.27;;;1.40;;
3217;SDS011;1621;49.702;8.618;2022-07-18T11:06:55;3.07;;;1.40;;
3217;SDS011;1621;49.702;8.618;2022-07-18T11:09:31;4.60;;;1.43;;
3217;SDS011;1621;49.702;8.618;2022-07-18T11:20:23;2.93;;;1.40;;
3217;SDS011;1621;49.702;8.618;2022-07-18T11:22:50;8.73;;;1.83;;
3217;SDS011;1621;49.702;8.618;2022-07-18T11:25:17;4.50;;;1.70;;
3217;SDS011;1621;49.702;8.618;2022-07-18T11:27:43;3.27;;;1.30;;
3217;SDS011;1621;49.702;8.618;2022-07-18T11:30:09;2.77;;;1.70;;
3217;SDS011;1621;49.702;8.618;2022-07-18T11:32:36;3.30;;;1.90;;
3217;SDS011;1621;49.702;8.618;2022-07-18T11:35:02;3.67;;;1.50;;
3217;SDS011;1621;49.702;8.618;2022-07-18T11:37:32;2.70;;;1.80;;
3217;SDS011;1621;49.702;8.618;2022-07-18T11:40:03;2.90;;;1.80;;
3217;SDS011;1621;49.702;8.618;2022-07-18T11:42:38;3.53;;;1.50;;
3217;SDS011;1621;49.702;8.618;2022-07-18T11:45:05;2.67;;;1.57;;
3217;SDS011;1621;49.702;8.618;2022-07-18T11:47:36;2.47;;;1.57;;
3217;SDS011;1621;49.702;8.618;2022-07-18T11:50:03;3.57;;;1.30;;
3217;SDS011;1621;49.702;8.618;2022-07-18T11:52:29;5.03;;;1.50;;
3217;SDS011;1621;49.702;8.618;2022-07-18T11:54:59;2.50;;;1.50;;
3217;SDS011;1621;49.702;8.618;2022-07-18T11:57:26;2.43;;;1.60;;
3217;SDS011;1621;49.702;8.618;2022-07-18T11:59:53;2.07;;;1.30;;
3217;SDS011;1621;49.702;8.618;2022-07-18T12:02:19;2.97;;;1.43;;
3217;SDS011;1621;49.702;8.618;2022-07-18T12:04:46;2.77;;;1.27;;
3217;SDS011;1621;49.702;8.618;2022-07-18T12:07:13;2.00;;;1.30;;
3217;SDS011;1621;49.702;8.618;2022-07-18T12:09:39;2.90;;;1.40;;
3217;SDS011;1621;49.702;8.618;2022-07-18T12:12:10;2.30;;;1.50;;
3217;SDS011;1621;49.702;8.618;2022-07-18T12:14:37;3.07;;;1.30;;
3217;SDS011;1621;49.702;8.618;2022-07-18T12:17:04;2.37;;;1.60;;
3217;SDS011;1621;49.702;8.618;2022-07-18T12:19:32;2.70;;;1.40;;
3217;SDS011;1621;49.702;8.618;2022-07-18T12:22:04;1.70;;;1.43;;
3217;SDS011;1621;49.702;8.618;2022-07-18T12:24:32;1.73;;;1.20;;
3217;SDS011;1621;49.702;8.618;2022-07-18T12:27:10;2.70;;;1.30;;
3217;SDS011;1621;49.702;8.618;2022-07-18T12:29:57;2.63;;;1.27;;
3217;SDS011;1621;49.702;8.618;2022-07-18T12:32:27;3.40;;;1.37;;
3217;SDS011;1621;49.702;8.618;2022-07-18T12:34:54;3.30;;;1.37;;
3217;SDS011;1621;49.702;8.618;2022-07-18T12:37:22;3.80;;;1.40;;
3217;SDS011;1621;49.702;8.618;2022-07-18T12:39:48;1.83;;;1.43;;
3217;SDS011;1621;49.702;8.618;2022-07-18T12:42:27;2.60;;;1.40;;
3217;SDS011;1621;49.702;8.618;2022-07-18T12:44:54;1.70;;;1.40;;
3217;SDS011;1621;49.702;8.618;2022-07-18T12:47:20;6.27;;;1.57;;
3217;SDS011;1621;49.702;8.618;2022-07-18T12:49:47;2.70;;;1.70;;
3217;SDS011;1621;49.702;8.618;2022-07-18T12:52:13;2.60;;;1.57;;
3217;SDS011;1621;49.702;8.618;2022-07-18T12:54:40;3.90;;;1.33;;
3217;SDS011;1621;49.702;8.618;2022-07-18T12:57:06;5.47;;;1.97;;
3217;SDS011;1621;49.702;8.618;2022-07-18T12:59:34;1.93;;;1.40;;
3217;SDS011;1621;49.702;8.618;2022-07-18T13:02:00;4.17;;;1.50;;
3217;SDS011;1621;49.702;8.618;2022-07-18T13:04:26;2.40;;;1.40;;
3217;SDS011;1621;49.702;8.618;2022-07-18T13:06:53;2.83;;;1.97;;
3217;SDS011;1621;49.702;8.618;2022-07-18T13:09:19;2.53;;;1.60;;
3217;SDS011;1621;49.702;8.618;2022-07-18T13:11:46;5.00;;;1.60;;
3217;SDS011;1621;49.702;8.618;2022-07-18T13:14:13;3.03;;;1.50;;
3217;SDS011;1621;49.702;8.618;2022-07-18T13:16:42;2.30;;;1.60;;
3217;SDS011;1621;49.702;8.618;2022-07-18T13:19:10;3.23;;;1.70;;
3217;SDS011;1621;49.702;8.618;2022-07-18T13:21:36;2.27;;;1.30;;
3217;SDS011;1621;49.702;8.618;2022-07-18T13:24:03;3.27;;;1.33;;
3217;SDS011;1621;49.702;8.618;2022-07-18T13:26:29;1.90;;;1.30;;
3217;SDS011;1621;49.702;8.618;2022-07-18T13:28:56;4.00;;;1.63;;
3217;SDS011;1621;49.702;8.618;2022-07-18T13:31:22;1.60;;;1.10;;
3217;SDS011;1621;49.702;8.618;2022-07-18T13:33:49;1.80;;;1.13;;
3217;SDS011;1621;49.702;8.618;2022-07-18T13:36:16;2.70;;;1.33;;
3217;SDS011;1621;49.702;8.618;2022-07-18T13:38:42;7.13;;;1.73;;
3217;SDS011;1621;49.702;8.618;2022-07-18T13:41:09;3.33;;;1.20;;
3217;SDS011;1621;49.702;8.618;2022-07-18T13:43:36;2.67;;;1.50;;
3217;SDS011;1621;49.702;8.618;2022-07-18T13:46:04;3.93;;;1.40;;
3217;SDS011;1621;49.702;8.618;2022-07-18T13:48:30;2.30;;;1.70;;
3217;SDS011;1621;49.702;8.618;2022-07-18T13:50:58;2.07;;;1.43;;
3217;SDS011;1621;49.702;8.618;2022-07-18T13:53:24;4.43;;;1.47;;
3217;SDS011;1621;49.702;8.618;2022-07-18T13:55:51;6.20;;;1.40;;
3217;SDS011;1621;49.702;8.618;2022-07-18T13:58:17;2.80;;;1.40;;
3217;SDS011;1621;49.702;8.618;2022-07-18T14:00:44;3.23;;;1.57;;
3217;SDS011;1621;49.702;8.618;2022-07-18T14:03:11;1.80;;;1.30;;
3217;SDS011;1621;49.702;8.618;2022-07-18T14:05:37;3.30;;;1.43;;
3217;SDS011;1621;49.702;8.618;2022-07-18T14:08:05;2.80;;;1.40;;
3217;SDS011;1621;49.702;8.618;2022-07-18T14:10:32;5.47;;;2.10;;
3217;SDS011;1621;49.702;8.618;2022-07-18T14:12:58;2.77;;;1.60;;
3217;SDS011;1621;49.702;8.618;2022-07-18T14:15:24;2.47;;;1.20;;
3217;SDS011;1621;49.702;8.618;2022-07-18T14:17:51;4.63;;;1.70;;
3217;SDS011;1621;49.702;8.618;2022-07-18T14:20:17;4.13;;;1.33;;
3217;SDS011;1621;49.702;8.618;2022-07-18T14:22:44;4.47;;;1.50;;
3217;SDS011;1621;49.702;8.618;2022-07-18T14:25:13;3.37;;;1.40;;
3217;SDS011;1621;49.702;8.618;2022-07-18T14:27:40;5.23;;;1.40;;
3217;SDS011;1621;49.702;8.618;2022-07-18T14:30:07;3.40;;;1.50;;
3217;SDS011;1621;49.702;8.618;2022-07-18T14:32:34;2.03;;;1.40;;
3217;SDS011;1621;49.702;8.618;2022-07-18T14:35:00;4.10;;;1.70;;
3217;SDS011;1621;49.702;8.618;2022-07-18T14:37:26;2.00;;;1.40;;
3217;SDS011;1621;49.702;8.618;2022-07-18T14:39:53;3.00;;;1.50;;
3217;SDS011;1621;49.702;8.618;2022-07-18T14:42:20;4.20;;;1.47;;
3217;SDS011;1621;49.702;8.618;2022-07-18T14:44:46;7.13;;;1.70;;
3217;SDS011;1621;49.702;8.618;2022-07-18T14:47:13;4.90;;;1.70;;
3217;SDS011;1621;49.702;8.618;2022-07-18T14:49:39;3.90;;;1.40;;
3217;SDS011;1621;49.702;8.618;2022-07-18T14:52:05;2.70;;;1.63;;
3217;SDS011;1621;49.702;8.618;2022-07-18T14:54:32;2.63;;;1.47;;
3217;SDS011;1621;49.702;8.618;2022-07-18T14:56:58;3.00;;;1.50;;
3217;SDS011;1621;49.702;8.618;2022-07-18T14:59:29;3.40;;;1.73;;
3217;SDS011;1621;49.702;8.618;2022-07-18T15:01:55;2.43;;;1.37;;
3217;SDS011;1621;49.702;8.618;2022-07-18T15:04:23;2.70;;;1.30;;
3217;SDS011;1621;49.702;8.618;2022-07-18T15:06:50;3.90;;;2.03;;
3217;SDS011;1621;49.702;8.618;2022-07-18T15:09:16;3.13;;;1.30;;
3217;SDS011;1621;49.702;8.618;2022-07-18T15:11:42;2.30;;;1.50;;
3217;SDS011;1621;49.702;8.618;2022-07-18T15:14:08;3.90;;;1.57;;
3217;SDS011;1621;49.702;8.618;2022-07-18T15:16:36;1.80;;;1.60;;
3217;SDS011;1621;49.702;8.618;2022-07-18T15:19:02;2.20;;;1.70;;
3217;SDS011;1621;49.702;8.618;2022-07-18T15:21:29;2.53;;;1.60;;
3217;SDS011;1621;49.702;8.618;2022-07-18T15:23:55;3.97;;;1.63;;
3217;SDS011;1621;49.702;8.618;2022-07-18T15:26:22;4.27;;;1.80;;
3217;SDS011;1621;49.702;8.618;2022-07-18T15:28:48;7.90;;;1.87;;